Other Surface Observations
Issued by NWS

Home | Current Version | Previous Version | Text Only | Print | Product List | Glossary On
Versions: 1 2 3 4 5 6 7 8 9 10 11 12 13 14 15 16 17 18 19 20 21 22 23 24 25 26 27 28 29 30 31 32 33 34 35 36 37 38 39 40 41 42 43 44 45 46 47 48 49 50
000
SXUS51 KWBC 051009
OSONT
:SHEF ENCODED 6-MINUTE NOS MET DATA
:NATIONAL WATER LEVEL OBSERVATION NETWORK (NWLON)
:TA(AIR TEMP DEG F)  SLP(SEA LEVEL PRESSURE INCHES)
:UD(WIND DIRECTION WHOLE DEGREES) US (WIND SPEED MPH)
:TW(WATER TEMP DEG F) UG(WIND GUSTS MPH) WC(CONDUCTIVITY uMHOS/CM)
:-9999 (MISSING VALUES)
:PROVIDED BY DOC/NOAA/NOS/CO-OPS, (301) 713-2540
:corms@noaa.gov
.E FRCB6 20200605 Z DH0948/TAIRG/DIN06/   72/   72
.E FRCB6 20200605 Z DH0948/PLIRG/DIN06/30.26/30.26
.E FRCB6 20200605 Z DH0948/TWIRG/DIN06/   74/   74
.E PSBM1 20200605 Z DH0954/TAIRP/DIN06/   49/   50
.E PSBM1 20200605 Z DH0954/PLIRP/DIN06/29.87/29.88
.E PSBM1 20200605 Z DH0954/USIRP/DIN06/    6/    4
.E PSBM1 20200605 Z DH0954/UDIRP/DIN06/  174/  180
.E PSBM1 20200605 Z DH0954/UGIRP/DIN06/    8/    6
.E PSBM1 20200605 Z DH0954/TWIRP/DIN06/   46/   46
.A PSBM1 20200605 Z DH0948/TAIRG    48/UGIRG     6/PLIRG 29.87/UDIRG   156/USIRG     5/TWIRG    46/WCIRG -9999
.E CFWM1 20200605 Z DH0954/TAIRP/DIN06/   53/   53
.E CFWM1 20200605 Z DH0954/PLIRP/DIN06/29.86/29.86
.E CFWM1 20200605 Z DH0954/USIRP/DIN06/    4/    3
.E CFWM1 20200605 Z DH0954/UDIRP/DIN06/  245/  235
.E CFWM1 20200605 Z DH0954/UGIRP/DIN06/    7/    6
.E CFWM1 20200605 Z DH0954/TWIRP/DIN06/   48/   47
.A CFWM1 20200605 Z DH0954/TAIRG    53/UGIRG     7/PLIRG 29.86/UDIRG   245/USIRG     4/TWIRG    48/WCIRG -9999
.A ATGM1 20200605 Z DH0954/TAIRG    53/UGIRG     8/PLIRG 29.87/UDIRG   305/USIRG     6/TWIRG    48/WCIRG -9999
.E CASM1 20200605 Z DH0954/TAIRP/DIN06/   67/   67
.E CASM1 20200605 Z DH0954/TWIRP/DIN06/   54/   54
.E CASM1 20200605 Z DH0948/TAIRG/DIN06/   67/   67
.E CASM1 20200605 Z DH0948/TWIRG/DIN06/   54/   54
.A WELM1 20200605 Z DH0954/TAIRG    64/UGIRG     6/PLIRG 29.86/UDIRG   207/USIRG     4/TWIRG    58/WCIRG -9999
.A BHBM3 20200605 Z DH0948/TAIRG    69/UGIRG -9999/PLIRG 29.86/UDIRG -9999/USIRG -9999/TWIRG -9999/WCIRG -9999
.E FRVM3 20200605 Z DH0954/TAIRP/DIN06/   66/   66
.E FRVM3 20200605 Z DH0954/PLIRP/DIN06/29.88/29.88
.E FRVM3 20200605 Z DH0954/TWIRP/DIN06/   64/   64
.A FRVM3 20200605 Z DH0948/TAIRG    66/UGIRG -9999/PLIRG 29.88/UDIRG -9999/USIRG -9999/TWIRG    64/WCIRG 39860
.A BLTM3 20200605 Z DH0954/TAIRG    66/UGIRG     3/PLIRG 29.87/UDIRG    35/USIRG     3/TWIRG -9999/WCIRG -9999
.E FRXM3 20200605 Z DH0954/TAIRP/DIN06/   66/   66
.A FRXM3 20200605 Z DH0948/TAIRG    66/UGIRG -9999/PLIRG -9999/UDIRG -9999/USIRG -9999/TWIRG -9999/WCIRG -9999
.A CHTM3 20200605 Z DH0948/TAIRG    63/UGIRG     9/PLIRG 29.91/UDIRG   243/USIRG     5/TWIRG -9999/WCIRG -9999
.E BZBM3 20200605 Z DH0954/TAIRP/DIN06/   62/   63
.E BZBM3 20200605 Z DH0954/PLIRP/DIN06/29.87/29.87
.E BZBM3 20200605 Z DH0954/TWIRP/DIN06/   62/   62
.E BZBM3 20200605 Z DH0948/TAIRG/DIN06/   62/   62
.E BZBM3 20200605 Z DH0948/PLIRG/DIN06/29.88/29.87
.E BZBM3 20200605 Z DH0948/TWIRG/DIN06/   62/   62
.E NTKM3 20200605 Z DH0954/TAIRP/DIN06/   62/   62
.E NTKM3 20200605 Z DH0954/PLIRP/DIN06/29.91/29.93
.E NTKM3 20200605 Z DH0954/USIRP/DIN06/    3/    3
.E NTKM3 20200605 Z DH0954/UDIRP/DIN06/  129/  235
.E NTKM3 20200605 Z DH0954/UGIRP/DIN06/    7/    5
.E NTKM3 20200605 Z DH0954/TWIRP/DIN06/   64/   64
.E NTKM3 20200605 Z DH0948/TAIRG/DIN06/   62/   62
.E NTKM3 20200605 Z DH0948/PLIRG/DIN06/29.92/29.91
.E NTKM3 20200605 Z DH0948/USIRG/DIN06/    0/    3
.E NTKM3 20200605 Z DH0948/UDIRG/DIN06/  199/  129
.E NTKM3 20200605 Z DH0948/UGIRG/DIN06/    7/    5
.E NTKM3 20200605 Z DH0948/TWIRG/DIN06/   64/   64
.A PRUR1 20200605 Z DH0954/TAIRG    63/UGIRG -9999/PLIRG -9999/UDIRG -9999/USIRG -9999/TWIRG -9999/WCIRG -9999
.E NWPR1 20200605 Z DH0954/TAIRP/DIN06/   61/   60
.E NWPR1 20200605 Z DH0954/PLIRP/DIN06/29.88/29.88
.E NWPR1 20200605 Z DH0954/USIRP/DIN06/    3/    3
.E NWPR1 20200605 Z DH0954/UDIRP/DIN06/  252/  233
.E NWPR1 20200605 Z DH0954/UGIRP/DIN06/    3/    4
.E NWPR1 20200605 Z DH0954/TWIRP/DIN06/   54/   54
.E CPTR1 20200605 Z DH0954/TAIRP/DIN06/   63/   63
.E CPTR1 20200605 Z DH0954/PLIRP/DIN06/29.86/29.88
.E CPTR1 20200605 Z DH0954/TWIRP/DIN06/   64/   64
.A CPTR1 20200605 Z DH0948/TAIRG    63/UGIRG -9999/PLIRG 29.87/UDIRG -9999/USIRG -9999/TWIRG    64/WCIRG -9999
.E PTCR1 20200605 Z DH0954/TAIRP/DIN06/   63/   63
.E PTCR1 20200605 Z DH0954/PLIRP/DIN06/29.90/29.90
.A PTCR1 20200605 Z DH0948/TAIRG    63/UGIRG -9999/PLIRG 29.88/UDIRG -9999/USIRG -9999/TWIRG -9999/WCIRG -9999
.E PVDR1 20200605 Z DH0954/TAIRP/DIN06/   64/   64
.E PVDR1 20200605 Z DH0954/PLIRP/DIN06/29.87/29.87
.A PVDR1 20200605 Z DH0954/TAIRG    64/UGIRG -9999/PLIRG 29.87/UDIRG -9999/USIRG -9999/TWIRG -9999/WCIRG -9999
.A FOXR1 20200605 Z DH0948/TAIRG    65/UGIRG     3/PLIRG 29.87/UDIRG   137/USIRG     2/TWIRG    62/WCIRG -9999
.E QPTR1 20200605 Z DH0954/TAIRP/DIN06/   61/   61
.E QPTR1 20200605 Z DH0954/PLIRP/DIN06/29.89/29.88
.E QPTR1 20200605 Z DH0954/USIRP/DIN06/    4/    4
.E QPTR1 20200605 Z DH0954/UDIRP/DIN06/  203/  206
.E QPTR1 20200605 Z DH0954/UGIRP/DIN06/    4/    4
.E QPTR1 20200605 Z DH0954/TWIRP/DIN06/   63/   63
.E NLNC3 20200605 Z DH0954/TAIRP/DIN06/   64/   64
.E NLNC3 20200605 Z DH0954/PLIRP/DIN06/29.87/29.87
.E NLNC3 20200605 Z DH0954/USIRP/DIN06/    3/    4
.E NLNC3 20200605 Z DH0954/UDIRP/DIN06/  176/  183
.E NLNC3 20200605 Z DH0954/UGIRP/DIN06/    4/    5
.E NLNC3 20200605 Z DH0954/TWIRP/DIN06/   56/   56
.A NLNC3 20200605 Z DH0954/TAIRG    64/UGIRG     4/PLIRG 29.87/UDIRG   176/USIRG     3/TWIRG    56/WCIRG -9999
.E NWHC3 20200605 Z DH0954/TAIRP/DIN06/   67/   67
.E NWHC3 20200605 Z DH0954/PLIRP/DIN06/29.84/29.84
.E NWHC3 20200605 Z DH0954/USIRP/DIN06/    2/    2
.E NWHC3 20200605 Z DH0954/UDIRP/DIN06/   58/  103
.E NWHC3 20200605 Z DH0954/UGIRP/DIN06/    5/    4
.E NWHC3 20200605 Z DH0954/TWIRP/DIN06/   61/   61
.E NWHC3 20200605 Z DH0948/TAIRG/DIN06/   67/   67
.E NWHC3 20200605 Z DH0948/PLIRG/DIN06/29.84/29.84
.E NWHC3 20200605 Z DH0948/USIRG/DIN06/    3/    2
.E NWHC3 20200605 Z DH0948/UDIRG/DIN06/   46/   58
.E NWHC3 20200605 Z DH0948/UGIRG/DIN06/    5/    5
.E NWHC3 20200605 Z DH0948/TWIRG/DIN06/   62/   61
.E BRHC3 20200605 Z DH0954/TAIRP/DIN06/   68/   68
.E BRHC3 20200605 Z DH0954/PLIRP/DIN06/29.84/29.83
.E BRHC3 20200605 Z DH0954/USIRP/DIN06/    1/    3
.E BRHC3 20200605 Z DH0954/UDIRP/DIN06/  315/  144
.E BRHC3 20200605 Z DH0954/UGIRP/DIN06/    4/    5
.E BRHC3 20200605 Z DH0954/TWIRP/DIN06/   61/   61
.A BRHC3 20200605 Z DH0948/TAIRG    68/UGIRG     2/PLIRG 29.84/UDIRG   314/USIRG     1/TWIRG    61/WCIRG -9999
.E MTKN6 20200605 Z DH0954/TAIRP/DIN06/   64/   64
.E MTKN6 20200605 Z DH0954/PLIRP/DIN06/29.91/29.90
.E MTKN6 20200605 Z DH0954/TWIRP/DIN06/   60/   60
.E MTKN6 20200605 Z DH0948/TAIRG/DIN06/   64/   64
.E MTKN6 20200605 Z DH0948/PLIRG/DIN06/29.91/29.91
.E MTKN6 20200605 Z DH0948/TWIRG/DIN06/   60/   60
.E KPTN6 20200605 Z DH0954/PLIRP/DIN06/29.87/29.88
.E KPTN6 20200605 Z DH0948/PLIRG/DIN06/29.87/29.87
.A BATN6 20200605 Z DH0954/TAIRG    70/UGIRG -9999/PLIRG 29.85/UDIRG -9999/USIRG -9999/TWIRG    63/WCIRG -9999
.E TKPN6 20200605 Z DH0948/TAIRG/DIN06/   68/   68
.E TKPN6 20200605 Z DH0948/PLIRG/DIN06/29.87/29.87
.E TKPN6 20200605 Z DH0948/USIRG/DIN06/    3/    4
.E TKPN6 20200605 Z DH0948/UDIRG/DIN06/  209/  205
.E TKPN6 20200605 Z DH0948/UGIRG/DIN06/    4/    5
.E TKPN6 20200605 Z DH0948/TWIRG/DIN06/   70/   70
.E BGNN6 20200605 Z DH0954/TAIRP/DIN06/   71/   71
.E BGNN6 20200605 Z DH0954/PLIRP/DIN06/29.86/29.86
.E BGNN6 20200605 Z DH0954/TWIRP/DIN06/   65/   65
.A BGNN6 20200605 Z DH0948/TAIRG    71/UGIRG -9999/PLIRG 29.85/UDIRG -9999/USIRG -9999/TWIRG    65/WCIRG -9999
.A ROBN4 20200605 Z DH0954/TAIRG    71/UGIRG    21/PLIRG 29.85/UDIRG   167/USIRG    18/TWIRG -9999/WCIRG -9999
.E SDHN4 20200605 Z DH0954/TAIRP/DIN06/   68/   68
.E SDHN4 20200605 Z DH0954/PLIRP/DIN06/29.88/29.88
.E SDHN4 20200605 Z DH0954/USIRP/DIN06/    8/    9
.E SDHN4 20200605 Z DH0954/UDIRP/DIN06/  160/  154
.E SDHN4 20200605 Z DH0954/UGIRP/DIN06/   10/   11
.E SDHN4 20200605 Z DH0954/TWIRP/DIN06/   65/   65
.E SDHN4 20200605 Z DH0948/TAIRG/DIN06/   68/   68
.E SDHN4 20200605 Z DH0948/PLIRG/DIN06/29.88/29.88
.E SDHN4 20200605 Z DH0948/USIRG/DIN06/   10/    8
.E SDHN4 20200605 Z DH0948/UDIRG/DIN06/  169/  160
.E SDHN4 20200605 Z DH0948/UGIRG/DIN06/   12/   10
.E SDHN4 20200605 Z DH0948/TWIRG/DIN06/   65/   65
.E ACYN4 20200605 Z DH0954/TAIRP/DIN06/   65/   65
.E ACYN4 20200605 Z DH0954/PLIRP/DIN06/29.92/29.93
.E ACYN4 20200605 Z DH0954/TWIRP/DIN06/   62/   62
.A ACYN4 20200605 Z DH0954/TAIRG    65/UGIRG -9999/PLIRG 29.92/UDIRG -9999/USIRG -9999/TWIRG    62/WCIRG -9999
.E CMAN4 20200605 Z DH0954/TAIRP/DIN06/   69/   69
.E CMAN4 20200605 Z DH0954/PLIRP/DIN06/29.91/29.91
.E CMAN4 20200605 Z DH0954/USIRP/DIN06/    6/    6
.E CMAN4 20200605 Z DH0954/UDIRP/DIN06/  126/  127
.E CMAN4 20200605 Z DH0954/UGIRP/DIN06/   10/    9
.E CMAN4 20200605 Z DH0954/TWIRP/DIN06/   63/   63
.A CMAN4 20200605 Z DH0954/TAIRG    69/UGIRG    10/PLIRG 29.91/UDIRG   126/USIRG     6/TWIRG    63/WCIRG 35620
.E SJSN4 20200605 Z DH0954/TAIRP/DIN06/   69/   69
.E SJSN4 20200605 Z DH0954/PLIRP/DIN06/29.91/29.91
.E SJSN4 20200605 Z DH0954/USIRP/DIN06/   15/   16
.E SJSN4 20200605 Z DH0954/UDIRP/DIN06/  163/  164
.E SJSN4 20200605 Z DH0954/UGIRP/DIN06/   19/   17
.A SJSN4 20200605 Z DH0948/TAIRG    69/UGIRG    19/PLIRG 29.91/UDIRG   162/USIRG    16/TWIRG -9999/WCIRG -9999
.E BDRN4 20200605 Z DH0954/TAIRP/DIN06/   69/   69
.E BDRN4 20200605 Z DH0954/PLIRP/DIN06/29.87/29.87
.E BDRN4 20200605 Z DH0954/USIRP/DIN06/    7/    7
.E BDRN4 20200605 Z DH0954/UDIRP/DIN06/  192/  198
.E BDRN4 20200605 Z DH0954/UGIRP/DIN06/   12/   11
.E BDRN4 20200605 Z DH0954/TWIRP/DIN06/   73/   73
.E BDRN4 20200605 Z DH0948/TAIRG/DIN06/   69/-9999
.E BDRN4 20200605 Z DH0948/PLIRG/DIN06/29.87/-9999
.E BDRN4 20200605 Z DH0948/USIRG/DIN06/    7/    7
.E BDRN4 20200605 Z DH0948/UDIRG/DIN06/  201/  192
.E BDRN4 20200605 Z DH0948/UGIRG/DIN06/   11/   12
.E BDRN4 20200605 Z DH0948/TWIRG/DIN06/   73/-9999
.E MRCP1 20200605 Z DH0954/TAIRP/DIN06/   69/   69
.E MRCP1 20200605 Z DH0954/PLIRP/DIN06/29.88/29.88
.E MRCP1 20200605 Z DH0954/TWIRP/DIN06/   70/   70
.A MRCP1 20200605 Z DH0948/TAIRG    69/UGIRG -9999/PLIRG 29.87/UDIRG -9999/USIRG -9999/TWIRG    70/WCIRG -9999
.E PHBP1 20200605 Z DH0954/TAIRP/DIN06/   69/   69
.E PHBP1 20200605 Z DH0954/PLIRP/DIN06/29.86/29.87
.E PHBP1 20200605 Z DH0954/TWIRP/DIN06/   70/   70
.E PHBP1 20200605 Z DH0948/TAIRG/DIN06/   69/   69
.E PHBP1 20200605 Z DH0948/PLIRG/DIN06/29.86/29.86
.E PHBP1 20200605 Z DH0948/TWIRG/DIN06/   70/   70
.E BDSP1 20200605 Z DH0954/TAIRP/DIN06/   70/   69
.E BDSP1 20200605 Z DH0954/PLIRP/DIN06/29.88/29.88
.E BDSP1 20200605 Z DH0948/TAIRG/DIN06/   70/   70
.E BDSP1 20200605 Z DH0948/PLIRG/DIN06/29.88/29.88
.A NBLP1 20200605 Z DH0948/TAIRG    69/UGIRG    11/PLIRG 29.88/UDIRG   205/USIRG     9/TWIRG    72/WCIRG -9999
.E DELD1 20200605 Z DH0954/TAIRP/DIN06/   69/   69
.E DELD1 20200605 Z DH0954/PLIRP/DIN06/29.89/29.89
.E DELD1 20200605 Z DH0954/USIRP/DIN06/    5/    4
.E DELD1 20200605 Z DH0954/UDIRP/DIN06/  195/  203
.E DELD1 20200605 Z DH0954/UGIRP/DIN06/    9/    7
.E DELD1 20200605 Z DH0954/TWIRP/DIN06/   71/   71
.A DELD1 20200605 Z DH0948/TAIRG    69/UGIRG    10/PLIRG 29.88/UDIRG   191/USIRG     6/TWIRG    71/WCIRG -9999
.E RDYD1 20200605 Z DH0954/TAIRP/DIN06/   68/   68
.E RDYD1 20200605 Z DH0954/PLIRP/DIN06/29.88/29.88
.E RDYD1 20200605 Z DH0954/TWIRP/DIN06/   71/   71
.A RDYD1 20200605 Z DH0948/TAIRG    68/UGIRG -9999/PLIRG 29.87/UDIRG -9999/USIRG -9999/TWIRG    70/WCIRG -9999
.E BRND1 20200605 Z DH0954/PLIRP/DIN06/29.92/29.92
.E BRND1 20200605 Z DH0954/USIRP/DIN06/   18/   18
.E BRND1 20200605 Z DH0954/UDIRP/DIN06/  176/  179
.E BRND1 20200605 Z DH0954/UGIRP/DIN06/   19/   19
.A BRND1 20200605 Z DH0948/TAIRG -9999/UGIRG    19/PLIRG 29.92/UDIRG   178/USIRG    17/TWIRG -9999/WCIRG -9999
.E LWSD1 20200605 Z DH0954/TAIRP/DIN06/   70/   70
.E LWSD1 20200605 Z DH0954/PLIRP/DIN06/29.92/29.92
.E LWSD1 20200605 Z DH0954/USIRP/DIN06/    7/    8
.E LWSD1 20200605 Z DH0954/UDIRP/DIN06/  159/  160
.E LWSD1 20200605 Z DH0954/UGIRP/DIN06/    9/   11
.E LWSD1 20200605 Z DH0954/TWIRP/DIN06/   64/   65
.A LWSD1 20200605 Z DH0948/TAIRG    70/UGIRG     9/PLIRG 29.93/UDIRG   161/USIRG     6/TWIRG    64/WCIRG 37810
.A OCIM2 20200605 Z DH0948/TAIRG    67/UGIRG     5/PLIRG 29.97/UDIRG   182/USIRG     4/TWIRG    69/WCIRG -9999
.E BISM2 20200605 Z DH0954/TAIRP/DIN06/   74/   74
.E BISM2 20200605 Z DH0954/PLIRP/DIN06/29.93/29.93
.E BISM2 20200605 Z DH0954/USIRP/DIN06/   10/    8
.E BISM2 20200605 Z DH0954/UDIRP/DIN06/  145/  142
.E BISM2 20200605 Z DH0954/UGIRP/DIN06/   12/   10
.E BISM2 20200605 Z DH0954/TWIRP/DIN06/   75/   75
.E BISM2 20200605 Z DH0948/TAIRG/DIN06/   74/   74
.E BISM2 20200605 Z DH0948/PLIRG/DIN06/29.93/29.93
.E BISM2 20200605 Z DH0948/USIRG/DIN06/   10/   10
.E BISM2 20200605 Z DH0948/UDIRG/DIN06/  146/  145
.E BISM2 20200605 Z DH0948/UGIRG/DIN06/   12/   12
.E BISM2 20200605 Z DH0948/TWIRG/DIN06/   75/   75
.E CAMM2 20200605 Z DH0954/TAIRP/DIN06/   72/   72
.E CAMM2 20200605 Z DH0954/PLIRP/DIN06/29.92/29.92
.E CAMM2 20200605 Z DH0954/TWIRP/DIN06/   72/   72
.A CAMM2 20200605 Z DH0948/TAIRG    72/UGIRG -9999/PLIRG 29.91/UDIRG -9999/USIRG -9999/TWIRG    73/WCIRG -9999
.E TCBM2 20200605 Z DH0954/TAIRP/DIN06/   70/   70
.E TCBM2 20200605 Z DH0954/PLIRP/DIN06/29.91/29.91
.E TCBM2 20200605 Z DH0954/USIRP/DIN06/    2/    1
.E TCBM2 20200605 Z DH0954/UDIRP/DIN06/  198/  167
.E TCBM2 20200605 Z DH0954/UGIRP/DIN06/    4/    3
.E TCBM2 20200605 Z DH0954/TWIRP/DIN06/   71/   71
.A TCBM2 20200605 Z DH0948/TAIRG    70/UGIRG     4/PLIRG 29.91/UDIRG   208/USIRG     3/TWIRG    71/WCIRG -9999
.E CHCM2 20200605 Z DH0954/TAIRP/DIN06/   69/   69
.E CHCM2 20200605 Z DH0954/PLIRP/DIN06/29.90/29.91
.E CHCM2 20200605 Z DH0954/USIRP/DIN06/    3/    4
.E CHCM2 20200605 Z DH0954/UDIRP/DIN06/  243/  294
.E CHCM2 20200605 Z DH0954/UGIRP/DIN06/    4/    4
.E CHCM2 20200605 Z DH0954/TWIRP/DIN06/   72/   72
.A CHCM2 20200605 Z DH0948/TAIRG    69/UGIRG     4/PLIRG 29.90/UDIRG   266/USIRG     2/TWIRG    72/WCIRG  1410
.E BLTM2 20200605 Z DH0954/TAIRP/DIN06/   69/   69
.E BLTM2 20200605 Z DH0954/PLIRP/DIN06/29.89/29.89
.E BLTM2 20200605 Z DH0954/USIRP/DIN06/    3/    1
.E BLTM2 20200605 Z DH0954/UDIRP/DIN06/  248/  231
.E BLTM2 20200605 Z DH0954/UGIRP/DIN06/    5/    5
.E BLTM2 20200605 Z DH0954/TWIRP/DIN06/   70/   70
.A BLTM2 20200605 Z DH0948/TAIRG    69/UGIRG     5/PLIRG 29.89/UDIRG   249/USIRG     3/TWIRG    70/WCIRG  8660
.A FSKM2 20200605 Z DH0954/TAIRG    69/UGIRG     5/PLIRG 29.90/UDIRG   250/USIRG     4/TWIRG -9999/WCIRG -9999
.E FSNM2 20200605 Z DH0936/TAIRP/DIN06/   69/   69
.E FSNM2 20200605 Z DH0936/PLIRP/DIN06/29.90/29.90
.E FSNM2 20200605 Z DH0936/USIRP/DIN06/    3/    3
.E FSNM2 20200605 Z DH0936/UDIRP/DIN06/  209/  195
.E FSNM2 20200605 Z DH0936/UGIRP/DIN06/    7/    5
.E CPVM2 20200605 Z DH0954/TAIRP/DIN06/   70/   70
.A CPVM2 20200605 Z DH0954/TAIRG    70/UGIRG -9999/PLIRG -9999/UDIRG -9999/USIRG -9999/TWIRG -9999/WCIRG -9999
.E APAM2 20200605 Z DH0948/TAIRG/DIN06/   71/   71
.E APAM2 20200605 Z DH0948/PLIRG/DIN06/29.90/29.90
.A COVM2 20200605 Z DH0954/TAIRP -9999/UGIRP    17/PLIRP 29.93/UDIRP   166/USIRP    14/TWIRP -9999/WCIRP -9999
.E SLIM2 20200605 Z DH0954/TAIRP/DIN06/   72/   72
.E SLIM2 20200605 Z DH0954/PLIRP/DIN06/29.92/29.92
.E SLIM2 20200605 Z DH0954/USIRP/DIN06/    8/    8
.E SLIM2 20200605 Z DH0954/UDIRP/DIN06/  165/  164
.E SLIM2 20200605 Z DH0954/UGIRP/DIN06/    9/    9
.E SLIM2 20200605 Z DH0954/TWIRP/DIN06/   70/   70
.A SLIM2 20200605 Z DH0948/TAIRG    72/UGIRG    11/PLIRG 29.92/UDIRG   162/USIRG     9/TWIRG    70/WCIRG -9999
.E PPTM2 20200605 Z DH0954/USIRP/DIN06/   11/   10
.E PPTM2 20200605 Z DH0954/UDIRP/DIN06/  168/  170
.E PPTM2 20200605 Z DH0954/UGIRP/DIN06/   13/   13
.E PPTM2 20200605 Z DH0948/USIRG/DIN06/   11/   11
.E PPTM2 20200605 Z DH0948/UDIRG/DIN06/  162/  168
.E PPTM2 20200605 Z DH0948/UGIRG/DIN06/   13/   13
.E WASD2 20200605 Z DH0954/TAIRP/DIN06/   71/   72
.E WASD2 20200605 Z DH0954/PLIRP/DIN06/29.92/29.92
.E WASD2 20200605 Z DH0954/USIRP/DIN06/    6/    6
.E WASD2 20200605 Z DH0954/UDIRP/DIN06/  161/  166
.E WASD2 20200605 Z DH0954/UGIRP/DIN06/    7/    8
.E WASD2 20200605 Z DH0954/TWIRP/DIN06/   76/   76
.E WASD2 20200605 Z DH0948/TAIRG/DIN06/   71/   71
.E WASD2 20200605 Z DH0948/PLIRG/DIN06/29.91/29.92
.E WASD2 20200605 Z DH0948/USIRG/DIN06/    5/    6
.E WASD2 20200605 Z DH0948/UDIRG/DIN06/  150/  161
.E WASD2 20200605 Z DH0948/UGIRG/DIN06/    7/    8
.E WASD2 20200605 Z DH0948/TWIRG/DIN06/   76/   76
.A WAHV2 20200605 Z DH0954/TAIRG    73/UGIRG     9/PLIRG 29.96/UDIRG   241/USIRG     6/TWIRG    78/WCIRG -9999
.E KPTV2 20200605 Z DH0948/USIRG/DIN06/    4/    4
.E KPTV2 20200605 Z DH0948/UDIRG/DIN06/  206/  203
.E KPTV2 20200605 Z DH0948/UGIRG/DIN06/    5/    6
.A RPLV2 20200605 Z DH0954/TAIRG -9999/UGIRG    12/PLIRG 29.99/UDIRG   206/USIRG    11/TWIRG -9999/WCIRG -9999
.A NCDV2 20200605 Z DH0948/TAIRG    73/UGIRG     7/PLIRG 29.90/UDIRG   158/USIRG     5/TWIRG    74/WCIRG -9999
.E LWTV2 20200605 Z DH0954/TAIRP/DIN06/   74/   73
.E LWTV2 20200605 Z DH0954/PLIRP/DIN06/29.93/29.93
.E LWTV2 20200605 Z DH0954/USIRP/DIN06/    5/    5
.E LWTV2 20200605 Z DH0954/UDIRP/DIN06/  160/  168
.E LWTV2 20200605 Z DH0954/UGIRP/DIN06/    6/    6
.E LWTV2 20200605 Z DH0954/TWIRP/DIN06/   74/   74
.A LWTV2 20200605 Z DH0948/TAIRG    74/UGIRG     6/PLIRG 29.93/UDIRG   151/USIRG     5/TWIRG    74/WCIRG  6810
.E YKRV2 20200605 Z DH0954/TAIRP/DIN06/   74/   74
.E YKRV2 20200605 Z DH0954/PLIRP/DIN06/29.98/29.98
.E YKTV2 20200605 Z DH0954/TAIRP/DIN06/   74/   74
.E YKTV2 20200605 Z DH0954/PLIRP/DIN06/29.95/29.95
.E YKTV2 20200605 Z DH0954/USIRP/DIN06/   10/    9
.E YKTV2 20200605 Z DH0954/UDIRP/DIN06/  213/  219
.E YKTV2 20200605 Z DH0954/UGIRP/DIN06/   12/   12
.E YKTV2 20200605 Z DH0954/TWIRP/DIN06/   71/   71
.E YKTV2 20200605 Z DH0948/TAIRG/DIN06/   74/   74
.E YKTV2 20200605 Z DH0948/PLIRG/DIN06/29.95/29.95
.E YKTV2 20200605 Z DH0948/USIRG/DIN06/    9/   10
.E YKTV2 20200605 Z DH0948/UDIRG/DIN06/  212/  213
.E YKTV2 20200605 Z DH0948/UGIRG/DIN06/   12/   12
.E YKTV2 20200605 Z DH0948/WCIRG/DIN06/16320/16350
.E YKTV2 20200605 Z DH0948/TWIRG/DIN06/   71/   71
.A DOMV2 20200605 Z DH0948/TAIRG    74/UGIRG    15/PLIRG 29.98/UDIRG   224/USIRG    12/TWIRG -9999/WCIRG -9999
.E CRYV2 20200605 Z DH0954/TAIRP/DIN06/   75/   75
.E CRYV2 20200605 Z DH0954/PLIRP/DIN06/29.97/29.97
.E CRYV2 20200605 Z DH0954/USIRP/DIN06/    9/    7
.E CRYV2 20200605 Z DH0954/UDIRP/DIN06/  214/  213
.E CRYV2 20200605 Z DH0954/UGIRP/DIN06/   13/   10
.A CRYV2 20200605 Z DH0954/TAIRG    74/UGIRG    13/PLIRG 29.96/UDIRG   214/USIRG     9/TWIRG -9999/WCIRG -9999
.A SWPV2 20200605 Z DH0948/TAIRG -9999/UGIRG -9999/PLIRG 29.96/UDIRG -9999/USIRG -9999/TWIRG    73/WCIRG 22320
.E WDSV2 20200605 Z DH0954/TAIRP/DIN06/   73/   74
.E WDSV2 20200605 Z DH0954/PLIRP/DIN06/29.96/29.96
.E WDSV2 20200605 Z DH0954/USIRP/DIN06/   11/   14
.E WDSV2 20200605 Z DH0954/UDIRP/DIN06/  214/  211
.E WDSV2 20200605 Z DH0954/UGIRP/DIN06/   15/   15
.A CHBV2 20200605 Z DH0948/TAIRG    73/UGIRG    13/PLIRG 29.94/UDIRG   224/USIRG    11/TWIRG -9999/WCIRG -9999
.E CHYV2 20200605 Z DH0954/TAIRP/DIN06/   75/   75
.E CHYV2 20200605 Z DH0954/PLIRP/DIN06/29.98/29.98
.E CHYV2 20200605 Z DH0954/USIRP/DIN06/    6/    8
.E CHYV2 20200605 Z DH0954/UDIRP/DIN06/  216/  218
.E CHYV2 20200605 Z DH0954/UGIRP/DIN06/    9/   12
.A CHYV2 20200605 Z DH0954/TAIRG    75/UGIRG     9/PLIRG 29.98/UDIRG   216/USIRG     6/TWIRG -9999/WCIRG -9999
.E MNPV2 20200605 Z DH0954/TAIRP/DIN06/   73/   73
.E MNPV2 20200605 Z DH0954/PLIRP/DIN06/29.97/29.97
.E MNPV2 20200605 Z DH0954/USIRP/DIN06/    2/    3
.E MNPV2 20200605 Z DH0954/UDIRP/DIN06/  213/  208
.E MNPV2 20200605 Z DH0954/UGIRP/DIN06/    5/    5
.E MNPV2 20200605 Z DH0954/TWIRP/DIN06/   73/   73
.A MNPV2 20200605 Z DH0948/TAIRG    73/UGIRG     5/PLIRG 29.97/UDIRG   194/USIRG     3/TWIRG    73/WCIRG 22360
.E DUKN7 20200605 Z DH0954/TAIRP/DIN06/   75/   75
.E DUKN7 20200605 Z DH0954/PLIRP/DIN06/30.00/30.00
.E DUKN7 20200605 Z DH0954/USIRP/DIN06/   11/   10
.E DUKN7 20200605 Z DH0954/UDIRP/DIN06/  196/  194
.E DUKN7 20200605 Z DH0954/UGIRP/DIN06/   13/   12
.A DUKN7 20200605 Z DH0954/TAIRG    75/UGIRG    13/PLIRG 30.00/UDIRG   196/USIRG    11/TWIRG -9999/WCIRG -9999
.A ORIN7 20200605 Z DH0948/TAIRG    75/UGIRG    13/PLIRG 30.02/UDIRG   180/USIRG    11/TWIRG    75/WCIRG -9999
.E HCGN7 20200605 Z DH0954/TAIRP/DIN06/   75/   75
.E HCGN7 20200605 Z DH0954/PLIRP/DIN06/30.03/30.04
.E HCGN7 20200605 Z DH0954/USIRP/DIN06/    5/    5
.E HCGN7 20200605 Z DH0954/UDIRP/DIN06/  179/  181
.E HCGN7 20200605 Z DH0954/UGIRP/DIN06/    7/    7
.E HCGN7 20200605 Z DH0954/TWIRP/DIN06/   75/   75
.E HCGN7 20200605 Z DH0948/TAIRG/DIN06/   75/   75
.E HCGN7 20200605 Z DH0948/PLIRG/DIN06/30.03/30.03
.E HCGN7 20200605 Z DH0948/USIRG/DIN06/    4/    5
.E HCGN7 20200605 Z DH0948/UDIRG/DIN06/  181/  179
.E HCGN7 20200605 Z DH0948/UGIRG/DIN06/    6/    7
.E HCGN7 20200605 Z DH0948/TWIRG/DIN06/   75/-9999
.E BFTN7 20200605 Z DH0954/TAIRP/DIN06/   76/   76
.E BFTN7 20200605 Z DH0954/PLIRP/DIN06/30.03/30.03
.E BFTN7 20200605 Z DH0954/USIRP/DIN06/    6/    6
.E BFTN7 20200605 Z DH0954/UDIRP/DIN06/  154/  153
.E BFTN7 20200605 Z DH0954/UGIRP/DIN06/    7/    8
.E BFTN7 20200605 Z DH0954/TWIRP/DIN06/   77/   77
.E BFTN7 20200605 Z DH0948/TAIRG/DIN06/   76/   76
.E BFTN7 20200605 Z DH0948/PLIRG/DIN06/30.03/30.03
.E BFTN7 20200605 Z DH0948/USIRG/DIN06/    5/    6
.E BFTN7 20200605 Z DH0948/UDIRG/DIN06/  160/  154
.E BFTN7 20200605 Z DH0948/UGIRG/DIN06/    6/    7
.E BFTN7 20200605 Z DH0948/TWIRG/DIN06/   77/   77
.E WLON7 20200605 Z DH0954/TAIRP/DIN06/   71/   71
.E WLON7 20200605 Z DH0954/PLIRP/DIN06/29.98/29.99
.E WLON7 20200605 Z DH0954/TWIRP/DIN06/   74/   74
.E WLON7 20200605 Z DH0948/TAIRG/DIN06/   71/   71
.E WLON7 20200605 Z DH0948/PLIRG/DIN06/29.98/29.98
.E WLON7 20200605 Z DH0948/TWIRG/DIN06/   74/   74
.E JMPN7 20200605 Z DH0954/TAIRP/DIN06/   71/   72
.E JMPN7 20200605 Z DH0954/PLIRP/DIN06/29.98/29.98
.E JMPN7 20200605 Z DH0954/USIRP/DIN06/    4/    4
.E JMPN7 20200605 Z DH0954/UDIRP/DIN06/  197/  225
.E JMPN7 20200605 Z DH0954/UGIRP/DIN06/    4/    5
.E JMPN7 20200605 Z DH0954/TWIRP/DIN06/   74/   74
.E JMPN7 20200605 Z DH0948/TAIRG/DIN06/   72/   71
.E JMPN7 20200605 Z DH0948/PLIRG/DIN06/29.97/29.98
.E JMPN7 20200605 Z DH0948/USIRG/DIN06/    2/    4
.E JMPN7 20200605 Z DH0948/UDIRG/DIN06/  217/  197
.E JMPN7 20200605 Z DH0948/UGIRG/DIN06/    4/    4
.E JMPN7 20200605 Z DH0948/TWIRG/DIN06/   74/   74
.E MROS1 20200605 Z DH0954/TAIRP/DIN06/   75/   76
.E MROS1 20200605 Z DH0954/PLIRP/DIN06/30.08/30.08
.E MROS1 20200605 Z DH0948/TAIRG/DIN06/   75/   75
.E MROS1 20200605 Z DH0948/PLIRG/DIN06/30.08/30.08
.E CHTS1 20200605 Z DH0954/TAIRP/DIN06/   75/   75
.E CHTS1 20200605 Z DH0954/PLIRP/DIN06/29.99/29.99
.E CHTS1 20200605 Z DH0954/USIRP/DIN06/    4/    3
.E CHTS1 20200605 Z DH0954/UDIRP/DIN06/  237/  229
.E CHTS1 20200605 Z DH0954/UGIRP/DIN06/    6/    5
.E CHTS1 20200605 Z DH0954/TWIRP/DIN06/   79/   79
.E CHTS1 20200605 Z DH0948/TAIRG/DIN06/   75/   75
.E CHTS1 20200605 Z DH0948/PLIRG/DIN06/29.98/29.99
.E CHTS1 20200605 Z DH0948/USIRG/DIN06/    5/    4
.E CHTS1 20200605 Z DH0948/UDIRG/DIN06/  230/  237
.E CHTS1 20200605 Z DH0948/UGIRG/DIN06/    7/    6
.E CHTS1 20200605 Z DH0948/TWIRG/DIN06/   79/   79
.E FPKG1 20200605 Z DH0954/TAIRP/DIN06/   74/   74
.E FPKG1 20200605 Z DH0954/PLIRP/DIN06/30.00/30.00
.E FPKG1 20200605 Z DH0954/USIRP/DIN06/    4/    5
.E FPKG1 20200605 Z DH0954/UDIRP/DIN06/  253/  260
.E FPKG1 20200605 Z DH0954/UGIRP/DIN06/    6/    9
.E FPKG1 20200605 Z DH0954/TWIRP/DIN06/   77/   77
.E FPKG1 20200605 Z DH0948/TAIRG/DIN06/   74/   74
.E FPKG1 20200605 Z DH0948/PLIRG/DIN06/30.00/30.00
.E FPKG1 20200605 Z DH0948/USIRG/DIN06/    4/    4
.E FPKG1 20200605 Z DH0948/UDIRG/DIN06/  246/  253
.E FPKG1 20200605 Z DH0948/UGIRG/DIN06/    5/    6
.E FPKG1 20200605 Z DH0948/TWIRG/DIN06/   77/   77
.E FRDF1 20200605 Z DH0954/USIRP/DIN06/    2/    3
.E FRDF1 20200605 Z DH0954/UDIRP/DIN06/  181/  195
.E FRDF1 20200605 Z DH0954/UGIRP/DIN06/    4/    5
.A FRDF1 20200605 Z DH0954/TAIRG    80/UGIRG     4/PLIRG 30.01/UDIRG   181/USIRG     2/TWIRG    79/WCIRG -9999
.E NFDF1 20200605 Z DH0954/TAIRP/DIN06/   68/   68
.E NFDF1 20200605 Z DH0954/USIRP/DIN06/    6/    6
.E NFDF1 20200605 Z DH0954/UDIRP/DIN06/  241/  243
.E NFDF1 20200605 Z DH0954/UGIRP/DIN06/   11/    9
.A NFDF1 20200605 Z DH0954/TAIRG    68/UGIRG    11/PLIRG -9999/UDIRG   241/USIRG     6/TWIRG -9999/WCIRG -9999
.E MYPF1 20200605 Z DH0954/TAIRP/DIN06/   74/   74
.E MYPF1 20200605 Z DH0954/PLIRP/DIN06/30.02/30.01
.E MYPF1 20200605 Z DH0954/USIRP/DIN06/    9/    5
.E MYPF1 20200605 Z DH0954/UDIRP/DIN06/  223/  208
.E MYPF1 20200605 Z DH0954/UGIRP/DIN06/   10/   10
.E MYPF1 20200605 Z DH0954/TWIRP/DIN06/   79/   79
.A MYPF1 20200605 Z DH0954/TAIRG    74/UGIRG    10/PLIRG 30.02/UDIRG   223/USIRG     9/TWIRG    79/WCIRG 35620
.E DMSF1 20200605 Z DH0954/TWIRP/DIN06/   81/   81
.A DMSF1 20200605 Z DH0954/TAIRG -9999/UGIRG -9999/PLIRG -9999/UDIRG -9999/USIRG -9999/TWIRG    81/WCIRG 28570
.A LTJF1 20200605 Z DH0948/TAIRG    74/UGIRG -9999/PLIRG -9999/UDIRG -9999/USIRG -9999/TWIRG -9999/WCIRG -9999
.A BLIF1 20200605 Z DH0948/TAIRG    75/UGIRG    12/PLIRG 30.03/UDIRG   221/USIRG     9/TWIRG -9999/WCIRG -9999
.E JXUF1 20200605 Z DH0954/TWIRP/DIN06/   80/   80
.E TRDF1 20200605 Z DH0954/TAIRP/DIN06/   75/   75
.E TRDF1 20200605 Z DH0954/PLIRP/DIN06/30.05/30.05
.E TRDF1 20200605 Z DH0954/TWIRP/DIN06/   80/   80
.A LKWF1 20200605 Z DH0954/TAIRG    82/UGIRG    11/PLIRG 29.97/UDIRG   146/USIRG    10/TWIRG    81/WCIRG -9999
.A PEGF1 20200605 Z DH0948/TAIRG    83/UGIRG -9999/PLIRG 29.99/UDIRG -9999/USIRG -9999/TWIRG    88/WCIRG -9999
.E VAKF1 20200605 Z DH0954/TAIRP/DIN06/   82/   82
.E VAKF1 20200605 Z DH0954/PLIRP/DIN06/30.00/30.00
.E VAKF1 20200605 Z DH0954/USIRP/DIN06/   10/    9
.E VAKF1 20200605 Z DH0954/UDIRP/DIN06/  108/  114
.E VAKF1 20200605 Z DH0954/UGIRP/DIN06/   13/   12
.E VAKF1 20200605 Z DH0954/TWIRP/DIN06/   84/   84
.A VAKF1 20200605 Z DH0948/TAIRG    82/UGIRG    13/PLIRG 30.00/UDIRG   114/USIRG     9/TWIRG    84/WCIRG -9999
.E VCAF1 20200605 Z DH0954/TAIRP/DIN06/   82/   82
.E VCAF1 20200605 Z DH0954/PLIRP/DIN06/29.95/29.96
.E VCAF1 20200605 Z DH0954/USIRP/DIN06/    5/    6
.E VCAF1 20200605 Z DH0954/UDIRP/DIN06/  120/  119
.E VCAF1 20200605 Z DH0954/UGIRP/DIN06/   10/   10
.E VCAF1 20200605 Z DH0954/TWIRP/DIN06/   83/   83
.A VCAF1 20200605 Z DH0954/TAIRG    82/UGIRG    10/PLIRG 29.95/UDIRG   120/USIRG     5/TWIRG    83/WCIRG -9999
.A KYWF1 20200605 Z DH0948/TAIRG -9999/UGIRG    15/PLIRG -9999/UDIRG   122/USIRG     9/TWIRG -9999/WCIRG -9999
.A BARA9 20200605 Z DH0948/TAIRG    79/UGIRG -9999/PLIRG 30.03/UDIRG -9999/USIRG -9999/TWIRG    83/WCIRG -9999



USA.gov is the U.S. government's official web portal to all federal, state and local government web resources and services.